Time;durP1;ratioP1;P1;durP2;ratioP2;P2;SDS_P1;SDS_P2;PMS_P1;PMS_P2;Temp;Humidity;BMP_temperature;BMP_pressure;BME280_temperature;BME280_humidity;BME280_pressure;Samples;Min_cycle;Max_cycle;Signal;HPM_P1;HPM_P2
2021/01/31 00:00:56;;;;;;;34.90;22.63;;;;;;;;;;2081433;28;21204;-54
2021/01/31 00:01:56;;;;;;;36.83;23.10;;;;;;;;;;2081153;28;20259;-51
2021/01/31 00:02:58;;;;;;;36.00;22.47;;;;;;;;;;2081365;28;20645;-53
2021/01/31 00:03:58;;;;;;;35.30;22.80;;;;;;;;;;2083081;28;20246;-51
2021/01/31 00:04:58;;;;;;;33.13;22.27;;;;;;;;;;2084207;28;20458;-56
2021/01/31 00:06:00;;;;;;;35.97;24.03;;;;;;;;;;2082120;28;20184;-53
2021/01/31 00:07:00;;;;;;;37.30;22.47;;;;;;;;;;2079422;28;20230;-52
2021/01/31 00:08:01;;;;;;;36.40;24.03;;;;;;;;;;2081713;28;20447;-54
2021/01/31 00:09:01;;;;;;;35.10;22.43;;;;;;;;;;2083010;28;20226;-52
2021/01/31 00:10:02;;;;;;;37.17;23.63;;;;;;;;;;2086643;28;20205;-51
2021/01/31 00:11:02;;;;;;;31.90;22.20;;;;;;;;;;2081104;28;20545;-54
2021/01/31 00:12:02;;;;;;;36.33;21.67;;;;;;;;;;2081433;28;20750;-53
2021/01/31 00:13:04;;;;;;;35.60;22.10;;;;;;;;;;2078950;28;20168;-52
2021/01/31 00:14:04;;;;;;;36.13;24.00;;;;;;;;;;2082503;28;20180;-53
2021/01/31 00:15:08;;;;;;;31.20;23.33;;;;;;;;;;2075538;28;20501;-54
2021/01/31 00:16:08;;;;;;;35.37;23.57;;;;;;;;;;2077461;28;20177;-52
2021/01/31 00:17:08;;;;;;;35.03;22.73;;;;;;;;;;2081267;28;20980;-55
2021/01/31 00:18:09;;;;;;;31.20;22.33;;;;;;;;;;2082084;28;20168;-52
2021/01/31 00:19:09;;;;;;;32.17;22.47;;;;;;;;;;2078695;28;20223;-52
2021/01/31 00:20:10;;;;;;;33.30;21.30;;;;;;;;;;2081169;28;20203;-53
2021/01/31 00:21:10;;;;;;;35.23;22.57;;;;;;;;;;2082276;28;20173;-56
2021/01/31 00:22:10;;;;;;;34.67;22.23;;;;;;;;;;2080987;28;20207;-54
2021/01/31 00:23:11;;;;;;;30.97;22.40;;;;;;;;;;2084525;28;20230;-55
2021/01/31 00:24:11;;;;;;;32.23;22.70;;;;;;;;;;2080120;28;20187;-54
2021/01/31 00:25:12;;;;;;;36.07;23.23;;;;;;;;;;2077428;28;20168;-54
2021/01/31 00:26:13;;;;;;;37.50;23.97;;;;;;;;;;2081108;28;20168;-56
2021/01/31 00:27:13;;;;;;;36.23;24.10;;;;;;;;;;2071651;28;20926;-54
2021/01/31 00:28:14;;;;;;;32.77;23.37;;;;;;;;;;2072416;28;20243;-52
2021/01/31 00:29:14;;;;;;;38.83;24.37;;;;;;;;;;2078527;28;20200;-52
2021/01/31 00:30:16;;;;;;;36.00;23.10;;;;;;;;;;2077334;28;20934;-54
2021/01/31 00:31:17;;;;;;;35.87;22.97;;;;;;;;;;2080732;28;20814;-54
2021/01/31 00:32:27;;;;;;;36.60;23.50;;;;;;;;;;2079088;28;20432;-55
2021/01/31 00:33:30;;;;;;;37.07;22.83;;;;;;;;;;2079218;28;20187;-53
2021/01/31 00:34:31;;;;;;;35.20;22.57;;;;;;;;;;2086283;28;20909;-53
2021/01/31 00:35:33;;;;;;;33.07;22.80;;;;;;;;;;2082807;28;20515;-53
2021/01/31 00:36:33;;;;;;;35.57;23.03;;;;;;;;;;2073909;28;20189;-54
2021/01/31 00:37:33;;;;;;;39.60;25.07;;;;;;;;;;2078690;28;20468;-55
2021/01/31 00:38:33;;;;;;;42.70;25.50;;;;;;;;;;2079966;28;20180;-54
2021/01/31 00:39:34;;;;;;;43.43;25.37;;;;;;;;;;2080554;28;20188;-54
2021/01/31 00:40:34;;;;;;;40.40;24.27;;;;;;;;;;2080958;28;20172;-52
2021/01/31 00:41:35;;;;;;;35.47;22.80;;;;;;;;;;2080781;28;20188;-53
2021/01/31 00:42:38;;;;;;;37.87;22.77;;;;;;;;;;2080736;28;20199;-51
2021/01/31 00:43:38;;;;;;;38.10;24.13;;;;;;;;;;2072392;28;20406;-51
2021/01/31 00:44:38;;;;;;;35.47;24.30;;;;;;;;;;2087007;28;20241;-51
2021/01/31 00:45:39;;;;;;;37.73;22.97;;;;;;;;;;2080382;28;20176;-51
2021/01/31 00:46:40;;;;;;;34.70;22.93;;;;;;;;;;2080890;28;20203;-55
2021/01/31 00:47:40;;;;;;;39.60;23.00;;;;;;;;;;2074725;28;20180;-56
2021/01/31 00:48:41;;;;;;;36.43;22.77;;;;;;;;;;2081509;28;20428;-56
2021/01/31 00:49:44;;;;;;;39.03;25.13;;;;;;;;;;2080212;28;20265;-54
2021/01/31 00:50:45;;;;;;;41.10;24.70;;;;;;;;;;2073115;28;20185;-52
2021/01/31 00:51:49;;;;;;;36.03;23.87;;;;;;;;;;2070029;28;20461;-53
2021/01/31 00:52:51;;;;;;;39.10;25.03;;;;;;;;;;2072536;28;20413;-53
2021/01/31 00:53:52;;;;;;;41.63;24.80;;;;;;;;;;2077172;28;20452;-53
2021/01/31 00:54:52;;;;;;;37.27;24.40;;;;;;;;;;2087165;28;20457;-54
2021/01/31 00:55:54;;;;;;;38.47;25.17;;;;;;;;;;2074778;28;20175;-53
2021/01/31 00:57:04;;;;;;;39.07;24.03;;;;;;;;;;2064022;28;20399;-52
2021/01/31 00:58:04;;;;;;;41.70;26.50;;;;;;;;;;2060583;28;20800;-52
2021/01/31 00:59:05;;;;;;;43.87;26.07;;;;;;;;;;2072222;28;20235;-55
2021/01/31 01:00:10;;;;;;;42.23;27.13;;;;;;;;;;2071985;28;20172;-52
2021/01/31 01:01:12;;;;;;;38.53;25.23;;;;;;;;;;2071736;28;20165;-55
2021/01/31 01:02:16;;;;;;;47.07;30.23;;;;;;;;;;2069046;28;20421;-52
2021/01/31 01:03:18;;;;;;;46.00;28.57;;;;;;;;;;2080077;28;20475;-53
2021/01/31 01:04:34;;;;;;;48.43;29.67;;;;;;;;;;2085401;28;20421;-52
2021/01/31 01:05:39;;;;;;;43.73;25.63;;;;;;;;;;2074159;28;20414;-55
2021/01/31 01:06:39;;;;;;;44.40;27.87;;;;;;;;;;2082309;28;20865;-52
2021/01/31 01:07:41;;;;;;;42.40;26.00;;;;;;;;;;2082144;28;20323;-55
2021/01/31 01:08:41;;;;;;;41.37;25.73;;;;;;;;;;2074162;28;20216;-55
2021/01/31 01:09:41;;;;;;;38.07;26.40;;;;;;;;;;2082126;28;20840;-54
2021/01/31 01:10:42;;;;;;;45.37;26.37;;;;;;;;;;2082886;28;20251;-55
2021/01/31 01:11:42;;;;;;;41.27;26.53;;;;;;;;;;2074881;28;20553;-55
2021/01/31 01:12:43;;;;;;;39.93;26.93;;;;;;;;;;2082276;28;20637;-55
2021/01/31 01:13:43;;;;;;;42.43;28.23;;;;;;;;;;2082782;28;20188;-53
2021/01/31 01:14:43;;;;;;;41.57;25.90;;;;;;;;;;2081698;28;20180;-55
2021/01/31 01:15:43;;;;;;;45.03;26.47;;;;;;;;;;2082287;28;20172;-55
2021/01/31 01:16:43;;;;;;;39.83;25.27;;;;;;;;;;2073506;28;20634;-54
2021/01/31 01:17:44;;;;;;;37.93;26.10;;;;;;;;;;2081866;28;20211;-55
2021/01/31 01:18:44;;;;;;;40.13;25.33;;;;;;;;;;2081146;28;20219;-55
2021/01/31 01:19:44;;;;;;;41.77;25.70;;;;;;;;;;2082806;28;20226;-53
2021/01/31 01:20:44;;;;;;;43.00;25.23;;;;;;;;;;2083093;28;20574;-54
2021/01/31 01:21:45;;;;;;;41.67;26.17;;;;;;;;;;2082270;28;20184;-56
2021/01/31 01:22:45;;;;;;;39.47;24.93;;;;;;;;;;2082081;28;20175;-54
2021/01/31 01:23:45;;;;;;;42.87;26.70;;;;;;;;;;2090033;28;20578;-53
2021/01/31 01:24:52;;;;;;;42.43;25.47;;;;;;;;;;2079522;28;20180;-49
2021/01/31 01:25:52;;;;;;;41.43;24.53;;;;;;;;;;2083190;28;20192;-50
2021/01/31 01:26:52;;;;;;;41.27;25.20;;;;;;;;;;2082051;28;20433;-54
2021/01/31 01:27:53;;;;;;;41.60;24.23;;;;;;;;;;2084755;28;20186;-55
2021/01/31 01:28:53;;;;;;;40.77;25.53;;;;;;;;;;2077725;28;20212;-53
2021/01/31 01:29:53;;;;;;;43.97;25.83;;;;;;;;;;2088682;28;20180;-53
2021/01/31 01:30:54;;;;;;;40.10;25.50;;;;;;;;;;2083032;28;20572;-53
2021/01/31 01:31:54;;;;;;;44.03;26.07;;;;;;;;;;2084181;28;20620;-54
2021/01/31 01:32:55;;;;;;;42.17;25.80;;;;;;;;;;2079421;28;20560;-54
2021/01/31 01:33:55;;;;;;;45.20;27.80;;;;;;;;;;2083627;28;20212;-55
2021/01/31 01:34:55;;;;;;;42.13;27.07;;;;;;;;;;2082733;28;20645;-53
2021/01/31 01:35:55;;;;;;;40.83;26.57;;;;;;;;;;2082536;28;20176;-52
2021/01/31 01:36:56;;;;;;;46.87;27.50;;;;;;;;;;2076579;28;20192;-54
2021/01/31 01:37:56;;;;;;;44.03;26.53;;;;;;;;;;2083353;28;20630;-55
2021/01/31 01:38:56;;;;;;;36.67;24.60;;;;;;;;;;2083589;28;20272;-52
2021/01/31 01:39:57;;;;;;;41.07;25.50;;;;;;;;;;2086231;28;20179;-54
2021/01/31 01:40:57;;;;;;;41.93;25.00;;;;;;;;;;2079991;28;20173;-56
2021/01/31 01:41:57;;;;;;;37.57;24.00;;;;;;;;;;2081291;28;20172;-56
2021/01/31 01:42:57;;;;;;;37.70;24.27;;;;;;;;;;2086858;28;20172;-55
2021/01/31 01:43:58;;;;;;;38.87;25.93;;;;;;;;;;2087379;28;20179;-52
2021/01/31 01:44:58;;;;;;;44.93;26.97;;;;;;;;;;2088775;28;20168;-55
2021/01/31 01:46:01;;;;;;;44.00;25.87;;;;;;;;;;2084407;28;20357;-51
2021/01/31 01:47:03;;;;;;;35.57;23.33;;;;;;;;;;2088236;28;20184;-53
2021/01/31 01:48:05;;;;;;;41.37;25.07;;;;;;;;;;2081670;28;20416;-54
2021/01/31 01:49:26;;;;;;;41.67;25.40;;;;;;;;;;2083191;28;20998;-51
2021/01/31 01:50:35;;;;;;;40.03;24.20;;;;;;;;;;2088669;28;20930;-50
2021/01/31 01:51:38;;;;;;;44.00;25.70;;;;;;;;;;2083694;28;20409;-51
2021/01/31 01:52:39;;;;;;;39.60;24.70;;;;;;;;;;2085220;28;20463;-52
2021/01/31 01:53:39;;;;;;;40.73;25.63;;;;;;;;;;2083270;28;20899;-51
2021/01/31 01:54:41;;;;;;;43.40;24.70;;;;;;;;;;2088655;28;20203;-51
2021/01/31 01:55:47;;;;;;;37.77;25.17;;;;;;;;;;2077953;28;20220;-51
2021/01/31 01:56:49;;;;;;;38.93;24.07;;;;;;;;;;2083228;28;20401;-51
2021/01/31 01:57:52;;;;;;;41.37;25.27;;;;;;;;;;2087406;28;20468;-51
2021/01/31 01:58:55;;;;;;;38.87;24.43;;;;;;;;;;2083632;28;20882;-53
2021/01/31 01:59:56;;;;;;;35.67;21.87;;;;;;;;;;2098292;22;20498;-57
2021/01/31 02:00:57;;;;;;;31.83;21.53;;;;;;;;;;2084944;28;20428;-56
2021/01/31 02:02:20;;;;;;;37.43;22.60;;;;;;;;;;2083466;28;20184;-58
2021/01/31 02:03:23;;;;;;;34.30;21.70;;;;;;;;;;2088279;28;20419;-56
2021/01/31 02:04:23;;;;;;;33.30;21.27;;;;;;;;;;2094877;28;20419;-58
2021/01/31 02:05:24;;;;;;;34.17;22.80;;;;;;;;;;2097201;28;20400;-56
2021/01/31 02:06:26;;;;;;;34.80;22.37;;;;;;;;;;2096856;28;20222;-56
2021/01/31 02:07:26;;;;;;;36.87;24.53;;;;;;;;;;2096217;28;20265;-56
2021/01/31 02:08:26;;;;;;;34.70;23.50;;;;;;;;;;2095122;28;20510;-56
2021/01/31 02:09:27;;;;;;;44.47;28.40;;;;;;;;;;2096333;28;20211;-57
2021/01/31 02:10:27;;;;;;;40.27;26.10;;;;;;;;;;2099171;28;20193;-56
2021/01/31 02:11:28;;;;;;;47.30;28.90;;;;;;;;;;2098386;28;20186;-57
2021/01/31 02:12:29;;;;;;;47.03;31.20;;;;;;;;;;2098365;28;20167;-57
2021/01/31 02:13:29;;;;;;;49.97;30.70;;;;;;;;;;2092666;28;20191;-60
2021/01/31 02:14:31;;;;;;;44.43;28.60;;;;;;;;;;2097397;28;20445;-61
2021/01/31 02:15:31;;;;;;;40.87;26.30;;;;;;;;;;2093195;28;20176;-63
2021/01/31 02:16:37;;;;;;;42.67;26.70;;;;;;;;;;2098327;28;20411;-58
2021/01/31 02:17:39;;;;;;;46.20;27.43;;;;;;;;;;2094009;28;20279;-56
2021/01/31 02:18:58;;;;;;;41.17;25.87;;;;;;;;;;2099007;28;20508;-59
2021/01/31 02:20:01;;;;;;;33.70;22.80;;;;;;;;;;2092893;28;20514;-59
2021/01/31 02:21:10;;;;;;;37.20;23.83;;;;;;;;;;2098217;28;20461;-58
2021/01/31 02:22:10;;;;;;;37.67;22.63;;;;;;;;;;2098437;28;20388;-60
2021/01/31 02:23:25;;;;;;;38.27;24.60;;;;;;;;;;2096992;28;20419;-55
2021/01/31 02:24:28;;;;;;;36.50;22.10;;;;;;;;;;2097057;28;20178;-57
2021/01/31 02:25:47;;;;;;;34.20;22.63;;;;;;;;;;2098247;28;20419;-58
2021/01/31 02:27:07;;;;;;;31.93;20.87;;;;;;;;;;2097675;28;20494;-58
2021/01/31 02:28:26;;;;;;;33.50;21.27;;;;;;;;;;2097422;28;20453;-55
2021/01/31 02:29:44;;;;;;;36.33;22.00;;;;;;;;;;2097956;28;20435;-57
2021/01/31 02:30:47;;;;;;;37.57;21.87;;;;;;;;;;2091522;28;20400;-58
2021/01/31 02:31:47;;;;;;;37.63;22.57;;;;;;;;;;2099430;28;20497;-55
2021/01/31 02:33:02;;;;;;;37.60;23.17;;;;;;;;;;2089313;28;20877;-61
2021/01/31 02:34:21;;;;;;;32.67;20.73;;;;;;;;;;2085385;28;20257;-57
2021/01/31 02:35:23;;;;;;;35.93;22.80;;;;;;;;;;2096378;28;20416;-58
2021/01/31 02:36:42;;;;;;;38.07;23.10;;;;;;;;;;2098813;28;20790;-57
2021/01/31 02:37:46;;;;;;;38.33;23.17;;;;;;;;;;2096965;28;20526;-58
2021/01/31 02:39:16;;;;;;;35.03;23.13;;;;;;;;;;2096022;28;20435;-58
2021/01/31 02:40:23;;;;;;;37.40;22.97;;;;;;;;;;2065478;28;20448;-55
2021/01/31 02:41:27;;;;;;;34.03;22.30;;;;;;;;;;2067597;28;21027;-57
2021/01/31 02:42:38;;;;;;;44.70;26.30;;;;;;;;;;2087256;28;20409;-60
2021/01/31 02:43:43;;;;;;;41.67;25.50;;;;;;;;;;2090040;28;20456;-58
2021/01/31 02:44:49;;;;;;;42.03;24.53;;;;;;;;;;2095377;28;20450;-59
2021/01/31 02:46:00;;;;;;;39.77;23.00;;;;;;;;;;2098020;28;20506;-57
2021/01/31 02:47:01;;;;;;;33.67;21.37;;;;;;;;;;2085598;28;20440;-56
2021/01/31 02:48:10;;;;;;;34.00;22.30;;;;;;;;;;2097672;28;20418;-61
2021/01/31 02:49:17;;;;;;;32.60;21.67;;;;;;;;;;2086026;28;20551;-59
2021/01/31 02:50:38;;;;;;;34.67;21.80;;;;;;;;;;2087116;28;20465;-57
2021/01/31 02:51:44;;;;;;;37.87;23.43;;;;;;;;;;2097948;28;20396;-60
2021/01/31 02:52:50;;;;;;;31.60;21.77;;;;;;;;;;2097565;28;20519;-59
2021/01/31 02:53:59;;;;;;;38.60;22.20;;;;;;;;;;2097963;28;20399;-55
2021/01/31 02:55:04;;;;;;;36.63;24.20;;;;;;;;;;2093245;28;20397;-60
2021/01/31 02:56:07;;;;;;;35.17;23.83;;;;;;;;;;2098037;28;20460;-59
2021/01/31 02:57:13;;;;;;;40.03;24.47;;;;;;;;;;2098337;28;20497;-56
2021/01/31 02:58:17;;;;;;;40.27;23.73;;;;;;;;;;2096688;28;20462;-58
2021/01/31 02:59:20;;;;;;;42.33;25.00;;;;;;;;;;2097984;28;20958;-55
2021/01/31 03:00:25;;;;;;;40.67;25.57;;;;;;;;;;2098045;28;20441;-59
2021/01/31 03:01:31;;;;;;;40.80;25.27;;;;;;;;;;2098728;28;20427;-55
2021/01/31 03:02:35;;;;;;;43.10;25.40;;;;;;;;;;2094387;28;20447;-58
2021/01/31 03:03:42;;;;;;;46.30;25.37;;;;;;;;;;2097602;28;20523;-56
2021/01/31 03:04:48;;;;;;;43.40;25.70;;;;;;;;;;2079633;28;20444;-59
2021/01/31 03:05:52;;;;;;;47.20;27.83;;;;;;;;;;2090475;28;20425;-60
2021/01/31 03:06:55;;;;;;;44.53;27.00;;;;;;;;;;2097369;28;20427;-59
2021/01/31 03:08:04;;;;;;;45.00;26.20;;;;;;;;;;2097281;28;20423;-57
2021/01/31 03:09:22;;;;;;;46.17;27.03;;;;;;;;;;2093188;28;20423;-61
2021/01/31 03:10:34;;;;;;;41.73;24.70;;;;;;;;;;2098662;28;21002;-60
2021/01/31 03:11:43;;;;;;;45.27;26.07;;;;;;;;;;2098068;28;20407;-59
2021/01/31 03:12:49;;;;;;;41.10;24.40;;;;;;;;;;2093222;28;20509;-58
2021/01/31 03:13:52;;;;;;;42.93;24.47;;;;;;;;;;2098771;28;20408;-59
2021/01/31 03:14:57;;;;;;;37.30;24.43;;;;;;;;;;2097654;28;20971;-56
2021/01/31 03:16:07;;;;;;;44.13;24.40;;;;;;;;;;2098454;28;20757;-61
2021/01/31 03:17:10;;;;;;;40.07;23.63;;;;;;;;;;2095362;28;20466;-57
2021/01/31 03:18:11;;;;;;;38.77;22.73;;;;;;;;;;2098063;28;20789;-59
2021/01/31 03:19:22;;;;;;;37.43;23.87;;;;;;;;;;2094302;28;20415;-58
2021/01/31 03:20:34;;;;;;;34.60;21.77;;;;;;;;;;2098125;28;20167;-60
2021/01/31 03:21:36;;;;;;;35.60;22.30;;;;;;;;;;2098530;28;20872;-56
2021/01/31 03:22:42;;;;;;;35.43;24.20;;;;;;;;;;2098027;28;20437;-58
2021/01/31 03:24:17;;;;;;;40.40;24.87;;;;;;;;;;2089634;28;20421;-58
2021/01/31 03:25:21;;;;;;;39.13;22.27;;;;;;;;;;2082510;28;20441;-60
2021/01/31 03:26:34;;;;;;;35.83;22.23;;;;;;;;;;2083200;28;20459;-56
2021/01/31 03:27:38;;;;;;;35.97;22.43;;;;;;;;;;2086454;28;20443;-55
2021/01/31 03:28:39;;;;;;;36.37;22.40;;;;;;;;;;2092529;28;20914;-57
2021/01/31 03:29:40;;;;;;;36.63;23.37;;;;;;;;;;2098092;28;20427;-58
2021/01/31 03:30:40;;;;;;;37.70;23.53;;;;;;;;;;2097992;28;20477;-57
2021/01/31 03:31:44;;;;;;;36.40;23.33;;;;;;;;;;2090114;28;20160;-57
2021/01/31 03:32:44;;;;;;;38.00;22.43;;;;;;;;;;2097337;28;20194;-60
2021/01/31 03:34:13;;;;;;;36.33;23.10;;;;;;;;;;2097734;28;20769;-58
2021/01/31 03:35:16;;;;;;;36.77;21.87;;;;;;;;;;2093001;28;20252;-57
2021/01/31 03:36:17;;;;;;;36.93;21.37;;;;;;;;;;2097918;28;20411;-56
2021/01/31 03:37:19;;;;;;;32.30;21.07;;;;;;;;;;2094805;28;20412;-56
2021/01/31 03:38:27;;;;;;;38.93;22.50;;;;;;;;;;2094659;28;20525;-57
2021/01/31 03:39:29;;;;;;;37.07;21.80;;;;;;;;;;2098096;28;20428;-55
2021/01/31 03:40:29;;;;;;;39.37;22.27;;;;;;;;;;2095719;28;20424;-60
2021/01/31 03:41:30;;;;;;;36.20;21.97;;;;;;;;;;2099019;28;20407;-59
2021/01/31 03:42:30;;;;;;;38.60;22.97;;;;;;;;;;2098143;28;20265;-60
2021/01/31 03:43:30;;;;;;;35.90;23.03;;;;;;;;;;2097690;28;20273;-60
2021/01/31 03:44:31;;;;;;;33.07;22.83;;;;;;;;;;2089430;28;20183;-62
2021/01/31 03:45:35;;;;;;;37.73;23.30;;;;;;;;;;2080616;28;20617;-59
2021/01/31 03:46:38;;;;;;;35.67;21.30;;;;;;;;;;2093288;28;20270;-58
2021/01/31 03:47:41;;;;;;;35.67;22.70;;;;;;;;;;2097185;28;20476;-59
2021/01/31 03:48:51;;;;;;;34.90;22.37;;;;;;;;;;2094493;28;20452;-59
2021/01/31 03:49:54;;;;;;;37.77;22.80;;;;;;;;;;2097781;28;20452;-59
2021/01/31 03:50:54;;;;;;;39.47;23.83;;;;;;;;;;2098037;28;20408;-59
2021/01/31 03:51:55;;;;;;;37.07;22.20;;;;;;;;;;2091993;28;20851;-58
2021/01/31 03:52:55;;;;;;;38.30;24.03;;;;;;;;;;2097885;28;20225;-59
2021/01/31 03:53:56;;;;;;;38.30;22.60;;;;;;;;;;2097526;28;20647;-60
2021/01/31 03:54:58;;;;;;;35.33;23.27;;;;;;;;;;2097100;28;20212;-59
2021/01/31 03:55:58;;;;;;;32.83;21.17;;;;;;;;;;2097585;28;20215;-58
2021/01/31 03:57:03;;;;;;;36.30;22.00;;;;;;;;;;2088443;28;20845;-56
2021/01/31 03:58:05;;;;;;;35.10;22.50;;;;;;;;;;2093763;28;20210;-60
2021/01/31 03:59:06;;;;;;;35.60;21.37;;;;;;;;;;2098243;28;20465;-63
2021/01/31 04:00:07;;;;;;;36.03;22.33;;;;;;;;;;2097195;28;20479;-58
2021/01/31 04:01:12;;;;;;;35.73;23.27;;;;;;;;;;2097961;28;20415;-57
2021/01/31 04:02:12;;;;;;;38.00;22.90;;;;;;;;;;2094158;28;20983;-59
2021/01/31 04:03:14;;;;;;;41.40;24.40;;;;;;;;;;2098200;28;20271;-57
2021/01/31 04:04:18;;;;;;;40.53;24.30;;;;;;;;;;2096002;28;20170;-59
2021/01/31 04:05:19;;;;;;;41.63;24.60;;;;;;;;;;2097129;28;20411;-56
2021/01/31 04:06:21;;;;;;;51.53;27.03;;;;;;;;;;2097194;28;20444;-56
2021/01/31 04:07:24;;;;;;;43.30;25.60;;;;;;;;;;2094854;28;20472;-59
2021/01/31 04:08:26;;;;;;;41.97;25.10;;;;;;;;;;2096731;28;20416;-59
2021/01/31 04:09:28;;;;;;;39.97;25.13;;;;;;;;;;2096541;28;20419;-59
2021/01/31 04:10:28;;;;;;;40.07;23.97;;;;;;;;;;2096372;28;20422;-60
2021/01/31 04:11:36;;;;;;;39.87;24.83;;;;;;;;;;2096535;28;20443;-57
2021/01/31 04:12:40;;;;;;;39.50;23.77;;;;;;;;;;2096015;28;20278;-58
2021/01/31 04:13:40;;;;;;;41.27;24.20;;;;;;;;;;2095492;28;20424;-57
2021/01/31 04:14:59;;;;;;;42.83;23.53;;;;;;;;;;2097095;28;20498;-56
2021/01/31 04:16:00;;;;;;;43.87;23.73;;;;;;;;;;2091699;28;20598;-59
2021/01/31 04:17:00;;;;;;;38.17;23.43;;;;;;;;;;2092974;28;20440;-54
2021/01/31 04:18:01;;;;;;;37.23;23.13;;;;;;;;;;2097975;28;21055;-60
2021/01/31 04:19:01;;;;;;;37.33;22.90;;;;;;;;;;2097344;28;20182;-57
2021/01/31 04:20:02;;;;;;;37.73;22.77;;;;;;;;;;2097844;28;20195;-58
2021/01/31 04:21:02;;;;;;;37.30;23.27;;;;;;;;;;2098114;28;20171;-57
2021/01/31 04:22:02;;;;;;;38.20;23.63;;;;;;;;;;2095487;28;20217;-55
2021/01/31 04:23:03;;;;;;;37.73;22.33;;;;;;;;;;2097092;28;20174;-58
2021/01/31 04:24:03;;;;;;;37.77;22.80;;;;;;;;;;2092887;28;20167;-57
2021/01/31 04:25:04;;;;;;;40.43;23.93;;;;;;;;;;2097879;28;20266;-58
2021/01/31 04:26:04;;;;;;;37.90;22.60;;;;;;;;;;2097207;28;20167;-59
2021/01/31 04:27:04;;;;;;;37.50;23.67;;;;;;;;;;2096927;28;20185;-57
2021/01/31 04:28:09;;;;;;;38.20;23.27;;;;;;;;;;2097315;28;20171;-59
2021/01/31 04:29:10;;;;;;;35.93;22.37;;;;;;;;;;2097124;28;20250;-58
2021/01/31 04:30:10;;;;;;;35.47;23.93;;;;;;;;;;2096574;28;20529;-58
2021/01/31 04:31:10;;;;;;;39.67;23.33;;;;;;;;;;2097824;28;20490;-55
2021/01/31 04:32:13;;;;;;;39.63;24.07;;;;;;;;;;2097731;28;20258;-57
2021/01/31 04:33:14;;;;;;;39.10;25.07;;;;;;;;;;2096849;28;20171;-54
2021/01/31 04:34:14;;;;;;;43.10;24.43;;;;;;;;;;2092104;28;20433;-60
2021/01/31 04:35:16;;;;;;;35.80;23.50;;;;;;;;;;2094404;28;20399;-58
2021/01/31 04:36:16;;;;;;;38.70;22.80;;;;;;;;;;2097329;28;20687;-59
2021/01/31 04:37:20;;;;;;;39.07;22.67;;;;;;;;;;2096418;28;20419;-57
2021/01/31 04:38:20;;;;;;;34.77;22.43;;;;;;;;;;2093685;28;20178;-56
2021/01/31 04:39:21;;;;;;;40.20;22.17;;;;;;;;;;2096740;28;20399;-53
2021/01/31 04:40:21;;;;;;;40.03;24.67;;;;;;;;;;2097388;28;20197;-59
2021/01/31 04:41:22;;;;;;;36.93;23.77;;;;;;;;;;2097668;28;20175;-54
2021/01/31 04:42:23;;;;;;;37.70;24.47;;;;;;;;;;2097709;28;20181;-57
2021/01/31 04:43:23;;;;;;;34.57;21.70;;;;;;;;;;2098333;28;20175;-58
2021/01/31 04:44:23;;;;;;;40.17;23.57;;;;;;;;;;2098013;28;20170;-55
2021/01/31 04:45:24;;;;;;;38.53;25.37;;;;;;;;;;2098541;28;20179;-54
2021/01/31 04:46:29;;;;;;;40.97;24.57;;;;;;;;;;2097305;28;20175;-53
2021/01/31 04:47:32;;;;;;;41.23;25.00;;;;;;;;;;2096799;28;20614;-56
2021/01/31 04:48:56;;;;;;;40.33;26.20;;;;;;;;;;2097060;28;20454;-58
2021/01/31 04:50:09;;;;;;;40.57;23.27;;;;;;;;;;2094365;28;20448;-62
2021/01/31 04:51:14;;;;;;;36.57;23.10;;;;;;;;;;2097607;28;20451;-57
2021/01/31 04:52:20;;;;;;;39.27;22.97;;;;;;;;;;2096017;28;20524;-62
2021/01/31 04:53:37;;;;;;;43.60;24.87;;;;;;;;;;2097452;28;20840;-55
2021/01/31 04:54:54;;;;;;;36.40;23.23;;;;;;;;;;2097609;28;20403;-57
2021/01/31 04:55:54;;;;;;;38.43;22.33;;;;;;;;;;2094080;28;20513;-55
2021/01/31 04:57:13;;;;;;;36.37;22.20;;;;;;;;;;2098523;28;20419;-57
2021/01/31 04:58:19;;;;;;;38.60;22.73;;;;;;;;;;2098205;28;20659;-61
2021/01/31 04:59:37;;;;;;;41.57;24.50;;;;;;;;;;2099026;28;20411;-61
2021/01/31 05:00:40;;;;;;;39.37;24.13;;;;;;;;;;2098668;28;20927;-58
2021/01/31 05:01:42;;;;;;;40.17;24.40;;;;;;;;;;2098010;28;20415;-59
2021/01/31 05:02:43;;;;;;;41.20;24.17;;;;;;;;;;2092126;28;20393;-64
2021/01/31 05:03:46;;;;;;;42.13;24.53;;;;;;;;;;2098946;28;20442;-58
2021/01/31 05:04:48;;;;;;;43.33;25.30;;;;;;;;;;2100194;28;20411;-59
2021/01/31 05:06:01;;;;;;;43.57;24.57;;;;;;;;;;2098943;28;20785;-59
2021/01/31 05:07:04;;;;;;;40.53;24.73;;;;;;;;;;2093651;28;20907;-60
2021/01/31 05:08:17;;;;;;;38.97;24.87;;;;;;;;;;2098279;28;20437;-61
2021/01/31 05:09:21;;;;;;;43.37;24.47;;;;;;;;;;2095619;28;20814;-54
2021/01/31 05:10:22;;;;;;;40.27;24.50;;;;;;;;;;2098385;28;20427;-58
2021/01/31 05:11:33;;;;;;;41.33;24.13;;;;;;;;;;2098562;28;20540;-62
2021/01/31 05:13:05;;;;;;;38.83;23.00;;;;;;;;;;2096434;28;20181;-57
2021/01/31 05:14:06;;;;;;;40.20;23.00;;;;;;;;;;2093959;28;20444;-57
2021/01/31 05:15:19;;;;;;;40.73;23.60;;;;;;;;;;2098051;28;20435;-58
2021/01/31 05:16:20;;;;;;;41.13;22.70;;;;;;;;;;2094823;28;20270;-56
2021/01/31 05:17:20;;;;;;;40.97;23.63;;;;;;;;;;2095490;28;20422;-60
2021/01/31 05:18:21;;;;;;;42.57;26.03;;;;;;;;;;2089610;28;20457;-56
2021/01/31 05:19:23;;;;;;;43.30;24.57;;;;;;;;;;2081310;28;20275;-56
2021/01/31 05:20:26;;;;;;;42.77;24.47;;;;;;;;;;2092475;28;20226;-57
2021/01/31 05:21:31;;;;;;;42.67;25.63;;;;;;;;;;2097979;28;20509;-58
2021/01/31 05:22:33;;;;;;;37.33;23.67;;;;;;;;;;2098670;28;20469;-57
2021/01/31 05:23:36;;;;;;;40.57;23.97;;;;;;;;;;2099280;28;20970;-58
2021/01/31 05:24:36;;;;;;;39.07;23.93;;;;;;;;;;2090910;28;20911;-55
2021/01/31 05:25:37;;;;;;;47.80;25.93;;;;;;;;;;2097714;28;20412;-53
2021/01/31 05:26:39;;;;;;;45.17;25.73;;;;;;;;;;2089085;28;20274;-58
2021/01/31 05:27:39;;;;;;;42.97;25.90;;;;;;;;;;2097543;28;20639;-62
2021/01/31 05:28:43;;;;;;;37.07;23.03;;;;;;;;;;2098990;28;20426;-60
2021/01/31 05:29:43;;;;;;;41.27;23.20;;;;;;;;;;2090099;28;20195;-54
2021/01/31 05:30:44;;;;;;;38.87;24.03;;;;;;;;;;2097983;28;20455;-57
2021/01/31 05:31:51;;;;;;;45.20;26.67;;;;;;;;;;2097297;28;20183;-54
2021/01/31 05:33:03;;;;;;;44.43;25.37;;;;;;;;;;2098100;28;20411;-58
2021/01/31 05:34:03;;;;;;;40.27;23.20;;;;;;;;;;2095558;28;20962;-53
2021/01/31 05:35:19;;;;;;;43.57;26.03;;;;;;;;;;2097232;28;20427;-54
2021/01/31 05:36:20;;;;;;;40.00;25.07;;;;;;;;;;2095366;28;20554;-59
2021/01/31 05:37:25;;;;;;;45.37;27.07;;;;;;;;;;2093472;28;20419;-58
2021/01/31 05:38:38;;;;;;;45.97;26.70;;;;;;;;;;2095045;28;20170;-53
2021/01/31 05:39:40;;;;;;;49.33;28.90;;;;;;;;;;2096447;28;20947;-52
2021/01/31 05:40:43;;;;;;;47.70;28.30;;;;;;;;;;2096990;28;20490;-61
2021/01/31 05:41:45;;;;;;;49.73;28.50;;;;;;;;;;2097047;28;20435;-56
2021/01/31 05:42:45;;;;;;;51.43;28.90;;;;;;;;;;2097683;28;20410;-53
2021/01/31 05:43:54;;;;;;;50.43;29.13;;;;;;;;;;2092567;28;20491;-57
2021/01/31 05:44:57;;;;;;;49.33;27.87;;;;;;;;;;2097811;28;20631;-53
2021/01/31 05:46:14;;;;;;;50.60;28.80;;;;;;;;;;2094708;28;20512;-55
2021/01/31 05:47:16;;;;;;;52.37;27.37;;;;;;;;;;2094828;28;20400;-56
2021/01/31 05:48:22;;;;;;;50.67;28.57;;;;;;;;;;2096896;28;20420;-58
2021/01/31 05:49:50;;;;;;;53.03;27.27;;;;;;;;;;2093905;28;20420;-55
2021/01/31 05:50:51;;;;;;;49.73;26.80;;;;;;;;;;2088384;28;20420;-56
2021/01/31 05:51:51;;;;;;;44.47;27.50;;;;;;;;;;2091657;28;20408;-55
2021/01/31 05:52:52;;;;;;;46.37;26.03;;;;;;;;;;2098434;28;20909;-57
2021/01/31 05:53:52;;;;;;;45.77;26.93;;;;;;;;;;2092288;28;20547;-57
2021/01/31 05:54:53;;;;;;;47.40;25.90;;;;;;;;;;2098655;28;20186;-56
2021/01/31 05:56:13;;;;;;;44.07;24.57;;;;;;;;;;2099013;28;20185;-59
2021/01/31 05:57:33;;;;;;;46.50;23.43;;;;;;;;;;2083169;28;20191;-57
2021/01/31 05:58:34;;;;;;;42.17;24.20;;;;;;;;;;2098188;28;20430;-55
2021/01/31 05:59:38;;;;;;;42.30;26.10;;;;;;;;;;2092428;28;20487;-57
2021/01/31 06:00:38;;;;;;;43.73;27.10;;;;;;;;;;2097166;28;20777;-57
2021/01/31 06:01:51;;;;;;;48.23;27.23;;;;;;;;;;2098531;28;20468;-60
2021/01/31 06:03:00;;;;;;;51.03;27.93;;;;;;;;;;2096426;28;20221;-58
2021/01/31 06:04:09;;;;;;;42.63;26.23;;;;;;;;;;2097085;28;20446;-56
2021/01/31 06:05:14;;;;;;;47.17;27.20;;;;;;;;;;2094510;28;20384;-57
2021/01/31 06:06:20;;;;;;;47.13;27.57;;;;;;;;;;2094782;28;20439;-53
2021/01/31 06:07:20;;;;;;;46.20;28.27;;;;;;;;;;2096918;28;20411;-59
2021/01/31 06:08:25;;;;;;;43.23;27.60;;;;;;;;;;2098067;28;21005;-60
2021/01/31 06:09:28;;;;;;;44.27;24.93;;;;;;;;;;2094192;28;20712;-56
2021/01/31 06:10:29;;;;;;;52.50;26.57;;;;;;;;;;2097350;28;20403;-57
2021/01/31 06:11:32;;;;;;;43.53;26.40;;;;;;;;;;2098702;28;20400;-55
2021/01/31 06:12:32;;;;;;;50.40;27.90;;;;;;;;;;2095610;28;20294;-56